Time;durP1;ratioP1;P1;durP2;ratioP2;P2;SDS_P1;SDS_P2;PMS_P1;PMS_P2;Temp;Humidity;BMP_temperature;BMP_pressure;BME280_temperature;BME280_humidity;BME280_pressure;Samples;Min_cycle;Max_cycle;Signal;HPM_P1;HPM_P2
2022/03/10 00:01:26;;;;;;;11.63;6.67;;;-1.40;99.90;;;;;;4996727;28;20022;-73
2022/03/10 00:03:51;;;;;;;12.40;7.37;;;-1.50;99.90;;;;;;4996849;28;20108;-74
2022/03/10 00:06:17;;;;;;;13.53;7.23;;;-1.50;99.90;;;;;;4996462;28;20060;-73
2022/03/10 00:08:42;;;;;;;14.60;7.07;;;-1.50;99.90;;;;;;4996488;28;20069;-73
2022/03/10 00:11:08;;;;;;;11.30;6.77;;;-1.50;99.90;;;;;;4996545;28;20030;-73
2022/03/10 00:13:34;;;;;;;13.97;7.40;;;-1.50;99.90;;;;;;4996270;28;20035;-73
2022/03/10 00:15:59;;;;;;;12.80;6.93;;;-1.50;99.90;;;;;;4996485;28;20467;-73
2022/03/10 00:18:28;;;;;;;13.90;7.33;;;-1.50;99.90;;;;;;4996325;28;20472;-73
2022/03/10 00:20:53;;;;;;;17.00;7.33;;;-1.50;99.90;;;;;;4979292;28;20112;-73
2022/03/10 00:23:19;;;;;;;13.03;7.00;;;-1.60;99.90;;;;;;4996518;28;20034;-73
2022/03/10 00:25:44;;;;;;;13.00;7.27;;;-1.60;99.90;;;;;;4994940;28;20487;-73
2022/03/10 00:28:10;;;;;;;12.77;7.40;;;-1.60;99.90;;;;;;4996004;28;20038;-73
2022/03/10 00:30:36;;;;;;;14.37;7.23;;;-1.60;99.90;;;;;;4996500;28;20034;-73
2022/03/10 00:33:02;;;;;;;15.07;8.00;;;-1.60;99.90;;;;;;4994682;28;20030;-73
2022/03/10 00:35:27;;;;;;;17.43;6.73;;;-1.60;99.90;;;;;;4995827;28;20080;-73
2022/03/10 00:37:53;;;;;;;17.53;7.50;;;-1.70;99.90;;;;;;4996036;28;20030;-73
2022/03/10 00:40:20;;;;;;;14.07;7.93;;;-1.70;99.90;;;;;;4978755;28;20030;-73
2022/03/10 00:42:46;;;;;;;14.97;7.07;;;-1.70;99.90;;;;;;4995824;28;20460;-73
2022/03/10 00:45:14;;;;;;;13.23;7.37;;;-1.70;99.90;;;;;;4995026;28;20101;-73
2022/03/10 00:47:40;;;;;;;12.87;7.13;;;-1.70;99.90;;;;;;4995954;28;20028;-72
2022/03/10 00:50:07;;;;;;;11.63;6.77;;;-1.70;99.90;;;;;;4995844;28;20038;-73
2022/03/10 00:52:33;;;;;;;12.33;6.63;;;-1.70;99.90;;;;;;4995755;28;20031;-73
2022/03/10 00:54:58;;;;;;;15.40;7.03;;;-1.80;99.90;;;;;;4978513;28;20356;-73
2022/03/10 00:57:24;;;;;;;11.23;6.80;;;-1.80;99.90;;;;;;4995538;28;20030;-72
2022/03/10 00:59:50;;;;;;;18.70;7.47;;;-1.80;99.90;;;;;;4995878;28;20057;-73
2022/03/10 01:02:16;;;;;;;15.70;7.47;;;-1.80;99.90;;;;;;4995452;28;20053;-72
2022/03/10 01:04:43;;;;;;;16.90;7.40;;;-1.90;99.90;;;;;;4995443;28;20027;-73
2022/03/10 01:07:09;;;;;;;11.40;7.20;;;-1.90;99.90;;;;;;4995279;28;20077;-73
2022/03/10 01:09:35;;;;;;;18.03;7.63;;;-1.90;99.90;;;;;;4995424;28;20026;-73
2022/03/10 01:12:00;;;;;;;14.80;7.80;;;-2.00;99.90;;;;;;4995482;28;20058;-73
2022/03/10 01:14:26;;;;;;;18.03;9.63;;;-2.00;99.90;;;;;;4995307;28;20037;-73
2022/03/10 01:16:51;;;;;;;17.90;9.63;;;-2.00;99.90;;;;;;4995316;28;20058;-73
2022/03/10 01:19:17;;;;;;;19.10;9.67;;;-2.00;99.90;;;;;;4995315;28;20030;-73
2022/03/10 01:21:42;;;;;;;18.93;9.20;;;-2.00;99.90;;;;;;4995287;28;20080;-72
2022/03/10 01:24:08;;;;;;;17.93;8.17;;;-2.00;99.90;;;;;;4995001;28;20086;-73
2022/03/10 01:26:33;;;;;;;16.03;7.87;;;-2.10;99.90;;;;;;4995635;28;20034;-73
2022/03/10 01:28:59;;;;;;;15.33;7.73;;;-2.10;99.90;;;;;;4995081;28;20027;-73
2022/03/10 01:31:25;;;;;;;14.93;8.03;;;-2.10;99.90;;;;;;4995007;28;20113;-73
2022/03/10 01:33:50;;;;;;;14.97;7.43;;;-2.10;99.90;;;;;;4994944;28;20042;-73
2022/03/10 01:36:16;;;;;;;12.27;7.63;;;-2.20;99.90;;;;;;4993579;28;20033;-73
2022/03/10 01:38:42;;;;;;;13.57;7.47;;;-2.20;99.90;;;;;;4994850;28;20038;-73
2022/03/10 01:41:11;;;;;;;13.37;6.80;;;-2.20;99.90;;;;;;4994816;28;20033;-73
2022/03/10 01:44:05;;;;;;;17.00;7.23;;;-2.20;99.90;;;;;;4994720;28;20431;-73
2022/03/10 01:46:31;;;;;;;14.03;6.60;;;-2.20;99.90;;;;;;4975388;28;20037;-73
2022/03/10 01:48:58;;;;;;;13.77;6.53;;;-2.20;99.90;;;;;;4957866;28;20417;-73
2022/03/10 01:51:24;;;;;;;10.87;6.53;;;-2.20;99.90;;;;;;4975165;28;20034;-73
2022/03/10 01:53:50;;;;;;;12.90;7.30;;;-2.30;99.90;;;;;;4975175;28;20133;-73
2022/03/10 01:56:17;;;;;;;13.77;7.97;;;-2.20;99.90;;;;;;4975078;28;20027;-73
2022/03/10 01:58:44;;;;;;;12.67;6.67;;;-2.20;99.90;;;;;;4975092;28;20035;-72
2022/03/10 02:01:10;;;;;;;17.90;7.83;;;-2.20;99.90;;;;;;4975029;28;20037;-73
2022/03/10 02:03:37;;;;;;;14.33;8.20;;;-2.20;99.90;;;;;;4974801;28;20027;-73
2022/03/10 02:06:04;;;;;;;12.40;6.63;;;-2.20;99.90;;;;;;4974771;28;20110;-73
2022/03/10 02:11:13;;;;;;;15.63;7.20;;;-2.30;99.90;;;;;;4994375;28;20396;-72
2022/03/10 02:13:39;;;;;;;13.23;7.43;;;-2.30;99.90;;;;;;4994047;28;20027;-72
2022/03/10 02:18:54;;;;;;;13.97;6.43;;;-2.30;99.90;;;;;;4994295;28;20033;-72
2022/03/10 02:21:20;;;;;;;13.27;7.20;;;-2.30;99.90;;;;;;4976653;28;20031;-73
2022/03/10 02:23:45;;;;;;;13.03;7.07;;;-2.40;99.90;;;;;;4993866;28;20034;-72
2022/03/10 02:26:12;;;;;;;14.20;7.27;;;-2.40;99.90;;;;;;4976537;28;20460;-72
2022/03/10 02:28:39;;;;;;;13.60;6.77;;;-2.40;99.90;;;;;;4976733;28;20539;-73
2022/03/10 02:31:04;;;;;;;15.00;7.77;;;-2.40;99.90;;;;;;4993907;28;20022;-73
2022/03/10 02:33:30;;;;;;;16.40;8.20;;;-2.40;99.90;;;;;;4994020;28;20412;-73
2022/03/10 02:35:55;;;;;;;12.47;7.57;;;-2.50;99.90;;;;;;4993815;28;20029;-73
2022/03/10 02:38:21;;;;;;;12.60;7.30;;;-2.50;99.90;;;;;;4992448;28;20384;-73
2022/03/10 02:40:48;;;;;;;16.87;9.17;;;-2.50;99.90;;;;;;4993763;28;20069;-72
2022/03/10 02:43:14;;;;;;;12.43;7.50;;;-2.60;99.90;;;;;;4993669;28;20089;-73
2022/03/10 02:45:40;;;;;;;14.63;7.43;;;-2.60;99.90;;;;;;4993652;28;20026;-73
2022/03/10 02:48:05;;;;;;;13.07;7.83;;;-2.60;99.90;;;;;;4993559;28;20033;-73
2022/03/10 02:50:31;;;;;;;12.30;7.07;;;-2.60;99.90;;;;;;4993807;28;20022;-73
2022/03/10 02:52:57;;;;;;;12.97;7.60;;;-2.60;99.90;;;;;;4992192;28;20065;-73
2022/03/10 02:55:22;;;;;;;13.37;7.43;;;-2.70;99.90;;;;;;4993491;28;20093;-73
2022/03/10 02:57:49;;;;;;;14.87;8.60;;;-2.70;99.90;;;;;;4993562;28;20498;-73
2022/03/10 03:00:16;;;;;;;14.00;8.10;;;-2.80;99.90;;;;;;4994005;28;20061;-72
2022/03/10 03:02:42;;;;;;;15.77;9.00;;;-2.80;99.90;;;;;;4993427;28;20352;-73
2022/03/10 03:05:09;;;;;;;13.10;7.70;;;-2.90;99.90;;;;;;4993440;28;20030;-73
2022/03/10 03:07:35;;;;;;;13.67;8.43;;;-2.90;99.90;;;;;;4993647;28;20041;-74
2022/03/10 03:10:01;;;;;;;15.63;8.63;;;-2.90;99.90;;;;;;4982069;28;20027;-73
2022/03/10 03:12:26;;;;;;;15.00;8.07;;;-2.90;99.90;;;;;;4982285;28;20417;-73
2022/03/10 03:14:54;;;;;;;13.93;7.93;;;-2.90;99.90;;;;;;4999817;28;20031;-73
2022/03/10 03:17:19;;;;;;;15.83;8.43;;;-2.90;99.90;;;;;;4999857;28;20113;-73
2022/03/10 03:19:45;;;;;;;12.30;7.83;;;-3.00;99.90;;;;;;4982377;28;20452;-73
2022/03/10 03:22:11;;;;;;;18.27;9.30;;;-3.00;99.90;;;;;;5000008;28;20367;-73
2022/03/10 03:24:37;;;;;;;19.20;8.07;;;-3.00;99.90;;;;;;4982161;28;20034;-73
2022/03/10 03:27:03;;;;;;;15.70;7.97;;;-3.00;99.90;;;;;;4999614;28;20030;-73
2022/03/10 03:29:29;;;;;;;14.13;8.10;;;-3.00;99.90;;;;;;4999751;28;20081;-73
2022/03/10 03:31:55;;;;;;;14.47;7.70;;;-3.00;99.90;;;;;;4998266;28;20026;-73
2022/03/10 03:34:20;;;;;;;14.90;8.23;;;-3.00;99.90;;;;;;4999665;28;20026;-73
2022/03/10 03:36:46;;;;;;;17.93;7.93;;;-3.00;99.90;;;;;;4999661;28;20049;-73
2022/03/10 03:39:13;;;;;;;16.17;8.20;;;-3.00;99.90;;;;;;4998585;28;20066;-73
2022/03/10 03:41:40;;;;;;;16.53;8.63;;;-3.00;99.90;;;;;;4999793;28;20057;-73
2022/03/10 03:44:08;;;;;;;16.47;7.80;;;-2.90;99.90;;;;;;4999478;28;20062;-73
2022/03/10 03:46:34;;;;;;;13.70;7.73;;;-2.90;99.90;;;;;;4999864;28;20173;-73
2022/03/10 03:49:00;;;;;;;12.97;7.30;;;-2.90;99.90;;;;;;4998601;28;20448;-73
2022/03/10 03:51:27;;;;;;;12.53;6.97;;;-2.90;99.90;;;;;;4999729;28;20543;-73
2022/03/10 03:53:52;;;;;;;20.53;8.13;;;-3.00;99.90;;;;;;4999544;28;20190;-73
2022/03/10 03:56:18;;;;;;;18.50;8.33;;;-3.00;99.90;;;;;;4999718;28;20411;-73
2022/03/10 03:58:44;;;;;;;18.50;7.77;;;-3.00;99.90;;;;;;4981853;28;20026;-73
2022/03/10 04:01:10;;;;;;;14.70;7.33;;;-3.10;99.90;;;;;;4999543;28;20030;-74
2022/03/10 04:03:35;;;;;;;13.90;7.23;;;-3.10;99.90;;;;;;4999233;28;20041;-73
2022/03/10 04:06:01;;;;;;;12.93;7.30;;;-3.10;99.90;;;;;;4999291;28;20022;-73
2022/03/10 04:08:27;;;;;;;15.97;7.37;;;-3.10;99.90;;;;;;4999322;28;20109;-73
2022/03/10 04:10:53;;;;;;;16.20;8.10;;;-3.20;99.90;;;;;;4999379;28;20527;-73
2022/03/10 04:13:22;;;;;;;17.23;8.20;;;-3.20;99.90;;;;;;4999703;28;20057;-73
2022/03/10 04:15:49;;;;;;;19.17;7.97;;;-3.20;99.90;;;;;;4999624;28;20083;-73
2022/03/10 04:18:16;;;;;;;14.33;7.43;;;-3.20;99.90;;;;;;4999240;28;20025;-73
2022/03/10 04:20:42;;;;;;;27.07;13.43;;;-3.20;99.90;;;;;;4995895;28;20022;-73
2022/03/10 04:23:09;;;;;;;22.70;12.30;;;-3.20;99.90;;;;;;4996243;28;20117;-73
2022/03/10 04:25:35;;;;;;;25.13;11.97;;;-3.20;99.90;;;;;;4996137;28;20022;-73
2022/03/10 04:28:00;;;;;;;25.23;14.03;;;-3.30;99.90;;;;;;4996319;28;20076;-73
2022/03/10 04:30:26;;;;;;;28.10;14.27;;;-3.30;99.90;;;;;;4996045;28;20050;-73
2022/03/10 04:32:52;;;;;;;27.97;13.87;;;-3.30;99.90;;;;;;4996063;28;20026;-73
2022/03/10 04:35:19;;;;;;;22.13;11.47;;;-3.30;99.90;;;;;;4996119;28;20034;-73
2022/03/10 04:37:49;;;;;;;23.67;10.53;;;-3.40;99.90;;;;;;4995967;28;20459;-73
2022/03/10 04:40:15;;;;;;;22.77;11.17;;;-3.40;99.90;;;;;;4978735;28;20419;-73
2022/03/10 04:42:41;;;;;;;21.80;11.23;;;-3.40;99.90;;;;;;4996026;28;20062;-73
2022/03/10 04:45:07;;;;;;;21.10;12.10;;;-3.40;99.90;;;;;;4996163;28;20031;-73
2022/03/10 04:47:34;;;;;;;27.17;13.17;;;-3.40;99.90;;;;;;4996128;28;20026;-73
2022/03/10 04:50:00;;;;;;;28.20;11.40;;;-3.50;99.90;;;;;;4996035;28;20029;-73
2022/03/10 04:52:26;;;;;;;24.13;11.50;;;-3.50;99.90;;;;;;4978593;28;20450;-73
2022/03/10 04:54:52;;;;;;;19.20;10.10;;;-3.50;99.90;;;;;;4978245;28;20383;-73
2022/03/10 04:57:18;;;;;;;21.20;9.53;;;-3.50;99.90;;;;;;4995624;28;20026;-73
2022/03/10 04:59:43;;;;;;;16.93;8.70;;;-3.50;99.90;;;;;;4995978;28;20033;-73
2022/03/10 05:02:09;;;;;;;22.23;9.83;;;-3.60;99.90;;;;;;4995554;28;20049;-73
2022/03/10 05:04:35;;;;;;;16.57;9.43;;;-3.60;99.90;;;;;;4995612;28;20018;-73
2022/03/10 05:07:00;;;;;;;14.83;8.13;;;-3.50;99.90;;;;;;4978075;28;20480;-73
2022/03/10 05:09:26;;;;;;;17.63;9.40;;;-3.60;99.90;;;;;;4995641;28;20046;-73
2022/03/10 05:11:52;;;;;;;18.60;9.00;;;-3.60;99.90;;;;;;4995660;28;20066;-73
2022/03/10 05:14:17;;;;;;;15.40;8.40;;;-3.50;99.90;;;;;;4995231;28;20116;-73
2022/03/10 05:16:43;;;;;;;21.37;9.60;;;-3.50;99.90;;;;;;4995488;28;20034;-73
2022/03/10 05:19:09;;;;;;;17.90;8.33;;;-3.60;99.90;;;;;;4995287;28;20034;-74
2022/03/10 05:21:34;;;;;;;16.17;8.00;;;-3.60;99.90;;;;;;4995056;28;20088;-73
2022/03/10 05:24:00;;;;;;;16.57;9.27;;;-3.60;99.90;;;;;;4990175;28;20023;-73
2022/03/10 05:26:26;;;;;;;26.97;8.90;;;-3.60;99.90;;;;;;4975901;28;20356;-73
2022/03/10 05:28:51;;;;;;;17.10;8.20;;;-3.70;99.90;;;;;;4975837;28;20050;-73
2022/03/10 05:31:17;;;;;;;20.00;7.97;;;-3.70;99.90;;;;;;4977321;28;20053;-74
2022/03/10 05:33:42;;;;;;;20.63;8.90;;;-3.70;99.90;;;;;;4974767;28;20034;-73
2022/03/10 05:36:08;;;;;;;22.93;9.73;;;-3.70;99.90;;;;;;4975977;28;20043;-73
2022/03/10 05:38:33;;;;;;;19.10;8.53;;;-3.70;99.90;;;;;;4993808;28;20030;-73
2022/03/10 05:41:00;;;;;;;19.10;8.70;;;-3.70;99.90;;;;;;4978325;28;20038;-73
2022/03/10 05:43:26;;;;;;;23.43;9.23;;;-3.70;99.90;;;;;;4976546;28;20034;-73
2022/03/10 05:45:52;;;;;;;18.67;7.43;;;-3.70;99.90;;;;;;4992006;28;20022;-73
2022/03/10 05:48:17;;;;;;;21.17;7.23;;;-3.80;99.90;;;;;;4976035;28;20027;-73
2022/03/10 05:50:43;;;;;;;20.43;8.40;;;-3.70;99.90;;;;;;4982874;28;20018;-73
2022/03/10 05:53:09;;;;;;;18.47;7.00;;;-3.80;99.90;;;;;;4961991;28;20034;-73
2022/03/10 05:55:34;;;;;;;16.13;7.83;;;-3.80;99.90;;;;;;4986153;28;20057;-73
2022/03/10 05:58:00;;;;;;;17.10;8.07;;;-3.80;99.90;;;;;;4988040;28;20033;-72
2022/03/10 06:00:26;;;;;;;19.03;7.17;;;-3.80;99.90;;;;;;4973838;28;20089;-72
2022/03/10 06:02:51;;;;;;;15.90;7.90;;;-3.80;99.90;;;;;;4988847;28;20037;-72
2022/03/10 06:05:17;;;;;;;17.43;7.53;;;-3.80;99.90;;;;;;4990643;28;20030;-73
2022/03/10 06:07:43;;;;;;;14.70;7.37;;;-3.80;99.90;;;;;;4990038;28;20053;-72
2022/03/10 06:10:10;;;;;;;16.87;6.93;;;-3.70;99.90;;;;;;4991882;28;20077;-72
2022/03/10 06:12:36;;;;;;;18.27;8.17;;;-3.70;99.90;;;;;;4993943;28;20049;-72
2022/03/10 06:15:07;;;;;;;14.47;7.80;;;-3.70;99.90;;;;;;4990285;28;20026;-72
2022/03/10 06:17:33;;;;;;;23.50;8.27;;;-3.60;99.90;;;;;;4990845;28;20039;-72
2022/03/10 06:19:59;;;;;;;17.63;8.70;;;-3.60;99.90;;;;;;4983069;28;20032;-72
2022/03/10 06:22:29;;;;;;;18.87;8.57;;;-3.50;99.90;;;;;;4993849;28;20038;-72
2022/03/10 06:24:55;;;;;;;20.60;10.93;;;-3.50;99.90;;;;;;4993954;28;20027;-69
2022/03/10 06:27:23;;;;;;;20.50;9.93;;;-3.40;99.90;;;;;;4982661;28;20106;-72
2022/03/10 06:29:51;;;;;;;20.57;9.10;;;-3.40;99.90;;;;;;4989553;28;20030;-72
2022/03/10 06:32:21;;;;;;;14.63;7.83;;;-3.30;99.90;;;;;;4976398;28;20128;-71
2022/03/10 06:34:50;;;;;;;19.47;8.13;;;-3.20;99.90;;;;;;4975619;28;20376;-71
2022/03/10 06:37:16;;;;;;;13.43;7.43;;;-3.20;99.90;;;;;;4993472;28;20030;-72
2022/03/10 06:39:42;;;;;;;14.67;8.20;;;-3.10;99.90;;;;;;4993591;28;20026;-71
2022/03/10 06:42:09;;;;;;;13.43;7.30;;;-3.00;99.90;;;;;;4993272;28;20066;-72
2022/03/10 06:44:36;;;;;;;15.13;7.23;;;-2.90;99.90;;;;;;4992376;28;20070;-72
2022/03/10 06:47:05;;;;;;;21.20;9.67;;;-2.70;99.90;;;;;;4992554;28;20022;-71
2022/03/10 06:49:32;;;;;;;15.37;8.03;;;-2.70;99.90;;;;;;4974624;28;20034;-72
2022/03/10 06:51:57;;;;;;;17.37;8.63;;;-2.50;99.90;;;;;;4989502;28;20030;-72
2022/03/10 06:54:23;;;;;;;16.73;8.43;;;-2.50;99.90;;;;;;4983965;28;20495;-72
2022/03/10 06:56:48;;;;;;;15.43;8.40;;;-2.40;99.90;;;;;;4989266;28;20112;-72
2022/03/10 06:59:14;;;;;;;19.80;9.83;;;-2.30;99.90;;;;;;4986519;28;20364;-72
2022/03/10 07:01:40;;;;;;;15.23;8.57;;;-2.20;99.90;;;;;;4989842;28;20511;-72
2022/03/10 07:04:06;;;;;;;18.40;9.50;;;-2.10;99.90;;;;;;4980054;28;20046;-71
2022/03/10 07:06:31;;;;;;;18.80;9.50;;;-2.00;99.90;;;;;;4986905;28;20030;-74
2022/03/10 07:08:57;;;;;;;19.30;9.07;;;-1.90;99.90;;;;;;4990883;28;20054;-74
2022/03/10 07:11:25;;;;;;;22.60;8.83;;;-1.70;99.90;;;;;;5004581;28;20026;-74
2022/03/10 07:13:50;;;;;;;20.33;9.77;;;-1.60;99.90;;;;;;4991435;28;20026;-74
2022/03/10 07:16:16;;;;;;;30.20;12.13;;;-1.40;99.90;;;;;;4971015;28;20296;-74
2022/03/10 07:18:43;;;;;;;20.90;9.97;;;-1.30;99.90;;;;;;4972256;28;20484;-74
2022/03/10 07:21:09;;;;;;;20.70;8.47;;;-1.10;99.90;;;;;;4989707;28;20045;-74
2022/03/10 07:23:35;;;;;;;19.83;8.23;;;-0.90;99.90;;;;;;4991028;28;20434;-74
2022/03/10 07:26:01;;;;;;;23.40;8.47;;;-0.60;99.90;;;;;;4991553;28;20031;-74
2022/03/10 07:28:28;;;;;;;17.77;8.23;;;-0.20;99.90;;;;;;4991106;28;20434;-74
2022/03/10 07:30:53;;;;;;;23.53;8.83;;;0.00;99.90;;;;;;4990648;28;20023;-74
2022/03/10 07:33:19;;;;;;;23.00;8.33;;;0.10;99.90;;;;;;4991206;28;20463;-74
2022/03/10 07:35:44;;;;;;;22.70;7.60;;;0.40;99.90;;;;;;4991519;28;20033;-73
2022/03/10 07:38:10;;;;;;;19.37;8.47;;;0.80;99.90;;;;;;4973635;28;20038;-73
2022/03/10 07:40:37;;;;;;;19.00;8.23;;;1.10;99.90;;;;;;4973657;28;20054;-73
2022/03/10 07:43:03;;;;;;;14.93;8.10;;;1.20;99.90;;;;;;4956062;28;20121;-73
2022/03/10 07:45:29;;;;;;;13.50;7.07;;;1.40;99.90;;;;;;4973542;28;20015;-73
2022/03/10 07:47:55;;;;;;;16.03;7.87;;;1.80;99.90;;;;;;4973140;28;20027;-73
2022/03/10 07:50:21;;;;;;;17.10;8.70;;;2.00;99.90;;;;;;4975164;28;20027;-73
2022/03/10 07:52:46;;;;;;;23.73;9.27;;;2.30;99.90;;;;;;4992858;28;20037;-74
2022/03/10 07:55:14;;;;;;;18.77;8.50;;;2.30;99.90;;;;;;4986320;28;20035;-78
2022/03/10 07:57:41;;;;;;;19.50;8.80;;;2.40;99.90;;;;;;5000582;28;20037;-77
2022/03/10 08:00:08;;;;;;;20.43;8.77;;;2.60;99.90;;;;;;4992239;28;20105;-79
2022/03/10 08:02:34;;;;;;;19.50;9.73;;;2.80;99.90;;;;;;4992027;28;20030;-79
2022/03/10 08:04:59;;;;;;;18.87;8.23;;;3.10;99.90;;;;;;4993696;28;20502;-72
2022/03/10 08:07:25;;;;;;;26.13;10.17;;;3.20;99.90;;;;;;4995734;28;20054;-71
2022/03/10 08:09:50;;;;;;;17.67;9.37;;;3.40;99.90;;;;;;4996061;28;20023;-72
2022/03/10 08:12:16;;;;;;;26.30;10.43;;;3.50;99.90;;;;;;4994388;28;20446;-71
2022/03/10 08:14:42;;;;;;;18.50;8.80;;;3.50;99.90;;;;;;4996049;28;20026;-72
2022/03/10 08:17:08;;;;;;;24.80;10.70;;;3.80;99.90;;;;;;4995568;28;20370;-71
2022/03/10 08:19:34;;;;;;;18.80;9.90;;;4.20;99.90;;;;;;4995480;28;20021;-72
2022/03/10 08:21:59;;;;;;;27.30;10.07;;;4.40;99.90;;;;;;4993819;28;20023;-72
2022/03/10 08:24:28;;;;;;;29.43;10.60;;;4.40;99.90;;;;;;4995029;28;20084;-72
2022/03/10 08:26:53;;;;;;;23.97;10.37;;;4.60;99.90;;;;;;4994722;28;20360;-72
2022/03/10 08:29:19;;;;;;;22.27;9.80;;;4.60;99.90;;;;;;4994334;28;20093;-73
2022/03/10 08:31:45;;;;;;;26.77;10.93;;;4.70;99.90;;;;;;4993718;28;20022;-72
2022/03/10 08:34:10;;;;;;;18.23;8.87;;;4.90;99.90;;;;;;4992828;28;20054;-72
2022/03/10 08:36:36;;;;;;;12.40;7.40;;;5.10;99.90;;;;;;4976744;28;20031;-72
2022/03/10 08:39:02;;;;;;;10.40;6.30;;;5.40;99.90;;;;;;4994398;28;20037;-72
2022/03/10 08:41:27;;;;;;;10.40;5.80;;;5.70;99.90;;;;;;4993873;28;20117;-72
2022/03/10 08:43:53;;;;;;;12.10;5.87;;;5.90;99.90;;;;;;4992450;28;20026;-73
2022/03/10 08:46:18;;;;;;;13.20;5.80;;;6.20;99.90;;;;;;4984077;28;20027;-72
2022/03/10 08:48:45;;;;;;;12.03;7.00;;;6.60;99.90;;;;;;4956852;28;20023;-72
2022/03/10 08:51:11;;;;;;;11.97;5.87;;;6.60;99.90;;;;;;4990965;28;20095;-72
2022/03/10 08:53:36;;;;;;;12.50;5.73;;;7.00;99.90;;;;;;4992857;28;20030;-72
2022/03/10 08:56:03;;;;;;;9.80;6.07;;;7.10;99.90;;;;;;4994071;28;20026;-71
2022/03/10 08:58:29;;;;;;;12.13;6.30;;;7.40;99.90;;;;;;4993717;28;20041;-70
2022/03/10 09:00:55;;;;;;;12.03;5.83;;;7.50;99.90;;;;;;4992914;28;20026;-71
2022/03/10 09:03:20;;;;;;;12.37;6.57;;;7.50;99.40;;;;;;4993919;28;20041;-72
2022/03/10 09:05:47;;;;;;;8.97;5.17;;;7.60;99.00;;;;;;4993483;28;20124;-76
2022/03/10 09:08:12;;;;;;;15.13;6.07;;;7.90;98.10;;;;;;4997685;28;20046;-75
2022/03/10 09:10:38;;;;;;;11.60;6.53;;;8.20;96.10;;;;;;4988193;28;20034;-76
2022/03/10 09:13:07;;;;;;;11.00;5.93;;;8.70;94.80;;;;;;4989303;28;20502;-76
2022/03/10 09:15:34;;;;;;;12.83;6.67;;;8.70;94.20;;;;;;4987303;28;20483;-76
2022/03/10 09:17:59;;;;;;;9.87;6.03;;;8.90;94.20;;;;;;4987570;28;20066;-76
2022/03/10 09:20:25;;;;;;;12.77;6.17;;;8.80;93.20;;;;;;4989031;28;20061;-76
2022/03/10 09:22:50;;;;;;;8.87;5.80;;;8.90;93.60;;;;;;4998059;28;20034;-76
2022/03/10 09:25:16;;;;;;;10.67;6.23;;;8.90;92.40;;;;;;4989564;28;20034;-75
2022/03/10 09:27:42;;;;;;;11.40;6.80;;;9.00;91.90;;;;;;4989349;28;20026;-76
2022/03/10 09:30:10;;;;;;;9.10;6.47;;;9.50;92.30;;;;;;4971888;28;20029;-76
2022/03/10 09:32:41;;;;;;;13.03;6.63;;;9.80;91.30;;;;;;4970431;28;20033;-75
2022/03/10 09:35:09;;;;;;;10.00;6.37;;;10.30;91.00;;;;;;4989043;28;20130;-76
2022/03/10 09:37:35;;;;;;;10.53;6.23;;;10.50;88.80;;;;;;4987835;28;20450;-75
2022/03/10 09:40:01;;;;;;;10.87;6.67;;;10.60;87.40;;;;;;4991097;28;20114;-77
2022/03/10 09:42:30;;;;;;;12.47;6.00;;;11.00;85.70;;;;;;4989135;28;20026;-72
2022/03/10 09:44:58;;;;;;;9.40;5.73;;;11.20;85.10;;;;;;4988598;28;20072;-73
2022/03/10 09:47:24;;;;;;;11.95;6.15;;;11.40;82.90;;;;;;4989921;28;20054;-72
2022/03/10 09:49:50;;;;;;;8.35;5.97;;;11.50;81.30;;;;;;4985428;28;20554;-72
2022/03/10 09:52:16;;;;;;;7.97;5.70;;;11.50;81.10;;;;;;4993074;28;20018;-72
2022/03/10 09:54:42;;;;;;;8.10;5.75;;;11.50;79.40;;;;;;4975642;28;20160;-73
2022/03/10 09:57:08;;;;;;;8.90;6.28;;;11.10;80.30;;;;;;4991742;28;20101;-72
2022/03/10 09:59:46;;;;;;;14.70;5.85;;;11.30;79.60;;;;;;4988368;28;20120;-72
2022/03/10 10:02:11;;;;;;;8.00;5.70;;;11.60;78.80;;;;;;4993261;28;20018;-73
2022/03/10 10:04:37;;;;;;;16.25;6.60;;;11.50;79.60;;;;;;4993263;28;20092;-73
2022/03/10 10:07:08;;;;;;;12.27;5.80;;;12.00;77.00;;;;;;4991163;28;20046;-72
2022/03/10 10:09:45;;;;;;;12.18;5.95;;;12.20;75.80;;;;;;4993920;28;20058;-73
2022/03/10 10:12:13;;;;;;;10.73;6.00;;;12.30;75.50;;;;;;4971889;28;20022;-72
2022/03/10 10:14:46;;;;;;;9.40;6.05;;;12.30;74.30;;;;;;4980413;28;20121;-72
2022/03/10 10:17:13;;;;;;;10.68;6.20;;;12.20;74.10;;;;;;4993044;28;20026;-73
2022/03/10 10:19:42;;;;;;;10.05;6.07;;;12.20;74.30;;;;;;4992248;28;20033;-73
2022/03/10 10:22:23;;;;;;;9.43;6.55;;;12.20;74.20;;;;;;4991699;28;20131;-73
2022/03/10 10:24:59;;;;;;;11.80;6.65;;;12.40;73.50;;;;;;4989050;28;20018;-73
2022/03/10 10:27:27;;;;;;;10.55;6.22;;;12.50;71.80;;;;;;4993442;28;20031;-72
2022/03/10 10:29:56;;;;;;;9.57;5.85;;;12.70;73.20;;;;;;4993112;28;20031;-73
2022/03/10 10:32:52;;;;;;;8.45;5.35;;;13.00;71.40;;;;;;4987805;28;20563;-72
2022/03/10 10:35:22;;;;;;;10.90;5.40;;;12.90;71.90;;;;;;4983986;28;20505;-73
2022/03/10 10:37:50;;;;;;;9.60;5.05;;;13.20;70.20;;;;;;4992955;28;20093;-73
2022/03/10 10:40:24;;;;;;;9.93;5.88;;;13.30;70.00;;;;;;4992670;28;20022;-73
2022/03/10 10:42:50;;;;;;;10.55;5.82;;;13.30;71.20;;;;;;4992931;28;20034;-73
2022/03/10 10:45:32;;;;;;;10.27;5.65;;;13.70;70.80;;;;;;4990983;28;20129;-73
2022/03/10 10:47:59;;;;;;;11.07;5.75;;;14.00;70.20;;;;;;4972693;28;20031;-73
2022/03/10 10:50:28;;;;;;;11.40;5.45;;;14.10;68.90;;;;;;4977709;28;20037;-73
2022/03/10 10:52:54;;;;;;;8.07;5.63;;;14.00;67.30;;;;;;4993145;28;20054;-72
2022/03/10 10:55:20;;;;;;;10.02;5.60;;;13.90;68.30;;;;;;4993481;28;20501;-73
2022/03/10 10:57:45;;;;;;;9.48;5.90;;;13.70;69.20;;;;;;4992471;28;20098;-73
2022/03/10 11:00:13;;;;;;;8.15;5.70;;;14.10;68.50;;;;;;4984427;28;20353;-73
2022/03/10 11:02:42;;;;;;;12.20;5.88;;;14.50;65.10;;;;;;4963841;28;20049;-73
2022/03/10 11:05:09;;;;;;;11.52;5.82;;;14.50;64.00;;;;;;4981581;28;20027;-73
2022/03/10 11:07:35;;;;;;;9.32;6.20;;;14.60;65.40;;;;;;4991027;28;20491;-73
2022/03/10 11:10:03;;;;;;;12.15;5.88;;;14.60;66.00;;;;;;4987552;28;20027;-74
2022/03/10 11:12:29;;;;;;;9.10;5.57;;;14.50;65.70;;;;;;4971788;28;20026;-73
2022/03/10 11:14:55;;;;;;;8.82;5.90;;;14.60;63.70;;;;;;4991422;28;20029;-73
2022/03/10 11:17:21;;;;;;;9.80;5.95;;;14.80;64.60;;;;;;4982950;28;20367;-73
2022/03/10 11:19:53;;;;;;;12.95;6.72;;;14.40;63.70;;;;;;4993089;28;20583;-73
2022/03/10 11:22:56;;;;;;;7.93;5.90;;;14.80;63.50;;;;;;4993343;28;20494;-73
2022/03/10 11:25:47;;;;;;;12.07;6.47;;;15.00;61.10;;;;;;4992956;28;20447;-73
2022/03/10 11:28:28;;;;;;;9.57;5.78;;;14.90;59.90;;;;;;4993238;28;20022;-73
2022/03/10 11:31:04;;;;;;;8.52;5.38;;;14.80;61.20;;;;;;4996547;28;20375;-73
2022/03/10 11:33:32;;;;;;;9.27;5.68;;;14.80;58.80;;;;;;4997023;28;20491;-73
2022/03/10 11:35:58;;;;;;;8.80;5.50;;;14.90;58.10;;;;;;4979501;28;20030;-73
2022/03/10 11:38:50;;;;;;;7.43;5.65;;;14.90;57.80;;;;;;4993859;28;20501;-76
2022/03/10 11:41:15;;;;;;;11.35;5.03;;;15.00;55.90;;;;;;4989606;28;20030;-76
2022/03/10 11:43:53;;;;;;;7.47;5.43;;;15.10;55.70;;;;;;4992146;28;20035;-76
2022/03/10 11:46:26;;;;;;;6.63;5.20;;;15.10;55.50;;;;;;4979246;28;20023;-72
2022/03/10 11:49:07;;;;;;;8.90;4.70;;;15.00;55.10;;;;;;4987583;28;20073;-72
2022/03/10 11:51:46;;;;;;;9.35;5.13;;;15.00;53.60;;;;;;4993536;28;20050;-71
2022/03/10 11:54:17;;;;;;;8.10;5.05;;;15.00;54.70;;;;;;4986990;28;20481;-73
2022/03/10 11:56:51;;;;;;;8.77;5.00;;;15.20;54.50;;;;;;4991563;28;20034;-73
2022/03/10 11:59:26;;;;;;;8.00;5.50;;;15.40;52.60;;;;;;4989128;28;20595;-71
2022/03/10 12:01:55;;;;;;;8.80;5.45;;;15.40;53.20;;;;;;4986139;28;20486;-72
2022/03/10 12:04:21;;;;;;;9.80;5.43;;;15.50;55.00;;;;;;4989305;28;20023;-72
2022/03/10 12:06:57;;;;;;;8.25;5.75;;;15.50;55.10;;;;;;4992957;28;20661;-72
2022/03/10 12:09:29;;;;;;;10.50;6.25;;;15.60;54.80;;;;;;4985722;28;20046;-72
2022/03/10 12:12:15;;;;;;;9.18;5.05;;;15.60;54.30;;;;;;4993888;28;20027;-72
2022/03/10 12:14:41;;;;;;;7.65;5.00;;;15.70;53.40;;;;;;4992996;28;20144;-72
2022/03/10 12:17:44;;;;;;;9.57;5.75;;;15.70;53.40;;;;;;4975548;28;20499;-72
2022/03/10 12:20:21;;;;;;;9.48;5.50;;;15.30;54.40;;;;;;4975987;28;20022;-72
2022/03/10 12:23:17;;;;;;;11.40;5.30;;;15.40;54.90;;;;;;4988867;28;20404;-72
2022/03/10 12:25:59;;;;;;;14.40;6.07;;;15.70;55.80;;;;;;4980227;28;20061;-72
2022/03/10 12:28:34;;;;;;;8.40;5.53;;;15.80;55.30;;;;;;4992296;28;20109;-72
2022/03/10 12:31:18;;;;;;;7.65;5.05;;;15.90;53.50;;;;;;4982778;28;20467;-72
2022/03/10 12:33:46;;;;;;;7.20;5.65;;;15.90;53.10;;;;;;4992993;28;20390;-72
2022/03/10 12:36:13;;;;;;;7.65;5.13;;;15.80;51.80;;;;;;4992478;28;20037;-72
2022/03/10 12:38:41;;;;;;;13.82;5.93;;;15.40;52.80;;;;;;4991227;28;20132;-72
2022/03/10 12:41:07;;;;;;;10.45;5.28;;;15.20;54.40;;;;;;4991340;28;20027;-72
2022/03/10 12:43:33;;;;;;;9.85;6.00;;;15.30;54.40;;;;;;4992220;28;20037;-72
2022/03/10 12:46:00;;;;;;;8.23;5.63;;;15.20;55.20;;;;;;4992314;28;20834;-72